HSNN

Nyala Airport

Nyala, Sudan
METAR HSNN 210400Z 23006KT CAVOK 25/17 Q1009
Observed Flight Rules
May-21 @ 04:00 UTC (3 hours ago) Visual Flight Rules
Wind Visibility Clouds
230° at 6 knots 10,000+ meters
  • Clear skies
Temperatures Readings
Current 25°C / 77°F
Dewpoint 17°C / 63°F
Humidity 61%
Altimeter 29.79" Hg
Pressure 1009 hPa
Elevation 658
METAR HSNN 210400Z 23006KT CAVOK 25/17 Q1009
Observed Flight Rules
May-21 @ 04:00 UTC
(3 hours ago)
VFR
Wind Visibility
230° at 6 knots 10,000+ meters
Clouds
  • Clear skies
Temperature Dewpoint
25°C / 77°F 17°C / 63°F
Humidity Altimeter Pressure
61% 29.79" Hg 1009 hPa